sensor_id;sensor_type;location;lat;lon;timestamp;pressure;altitude;pressure_sealevel;temperature;humidity
9091;BME280;4581;42.416;25.598;2023-10-09T00:00:58;98698.19;;;21.53;52.55
9091;BME280;4581;42.416;25.598;2023-10-09T00:03:32;98712.63;;;21.48;51.75
9091;BME280;4581;42.416;25.598;2023-10-09T00:05:59;98734.09;;;21.28;49.66
9091;BME280;4581;42.416;25.598;2023-10-09T00:08:28;98747.16;;;20.80;49.09
9091;BME280;4581;42.416;25.598;2023-10-09T00:11:00;98742.19;;;20.17;49.91
9091;BME280;4581;42.416;25.598;2023-10-09T00:13:40;98751.13;;;19.76;51.08
9091;BME280;4581;42.416;25.598;2023-10-09T00:16:19;98734.50;;;19.59;50.88
9091;BME280;4581;42.416;25.598;2023-10-09T00:19:03;98747.63;;;19.08;52.08
9091;BME280;4581;42.416;25.598;2023-10-09T00:21:56;98774.94;;;19.08;53.57
9091;BME280;4581;42.416;25.598;2023-10-09T00:24:25;98766.81;;;18.77;53.71
9091;BME280;4581;42.416;25.598;2023-10-09T00:26:53;98762.78;;;18.48;53.84
9091;BME280;4581;42.416;25.598;2023-10-09T00:29:28;98778.97;;;18.43;54.27
9091;BME280;4581;42.416;25.598;2023-10-09T00:32:01;98771.69;;;18.30;54.21
9091;BME280;4581;42.416;25.598;2023-10-09T00:34:40;98780.97;;;18.29;55.08
9091;BME280;4581;42.416;25.598;2023-10-09T00:37:10;98781.88;;;18.16;54.11
9091;BME280;4581;42.416;25.598;2023-10-09T00:39:43;98788.13;;;17.79;53.48
9091;BME280;4581;42.416;25.598;2023-10-09T00:42:11;98791.09;;;17.71;54.41
9091;BME280;4581;42.416;25.598;2023-10-09T00:44:42;98803.28;;;17.49;54.04
9091;BME280;4581;42.416;25.598;2023-10-09T00:47:11;98824.06;;;17.30;54.88
9091;BME280;4581;42.416;25.598;2023-10-09T00:49:59;98824.47;;;17.14;54.65
9091;BME280;4581;42.416;25.598;2023-10-09T00:52:31;98822.81;;;17.06;55.95
9091;BME280;4581;42.416;25.598;2023-10-09T00:55:00;98824.91;;;16.84;55.87
9091;BME280;4581;42.416;25.598;2023-10-09T00:57:50;98827.00;;;16.82;56.77
9091;BME280;4581;42.416;25.598;2023-10-09T01:00:27;98835.13;;;16.69;56.17
9091;BME280;4581;42.416;25.598;2023-10-09T01:03:16;98828.66;;;16.70;56.98
9091;BME280;4581;42.416;25.598;2023-10-09T01:05:44;98831.38;;;16.64;57.26
9091;BME280;4581;42.416;25.598;2023-10-09T01:08:29;98850.41;;;16.57;56.85
9091;BME280;4581;42.416;25.598;2023-10-09T01:11:11;98848.06;;;16.54;56.19
9091;BME280;4581;42.416;25.598;2023-10-09T01:13:46;98852.38;;;16.29;56.63
9091;BME280;4581;42.416;25.598;2023-10-09T01:16:13;98851.03;;;16.05;57.48
9091;BME280;4581;42.416;25.598;2023-10-09T01:18:44;98847.84;;;15.88;56.78
9091;BME280;4581;42.416;25.598;2023-10-09T01:21:13;98851.34;;;15.82;57.83
9091;BME280;4581;42.416;25.598;2023-10-09T01:23:42;98864.81;;;15.63;58.25
9091;BME280;4581;42.416;25.598;2023-10-09T01:26:40;98860.66;;;15.67;58.93
9091;BME280;4581;42.416;25.598;2023-10-09T01:29:15;98870.69;;;15.66;59.02
9091;BME280;4581;42.416;25.598;2023-10-09T01:31:53;98872.97;;;15.63;59.86
9091;BME280;4581;42.416;25.598;2023-10-09T01:34:31;98885.97;;;15.67;59.19
9091;BME280;4581;42.416;25.598;2023-10-09T01:37:12;98882.38;;;15.60;59.79
9091;BME280;4581;42.416;25.598;2023-10-09T01:39:44;98893.09;;;15.68;59.21
9091;BME280;4581;42.416;25.598;2023-10-09T01:42:12;98882.22;;;15.68;59.52
9091;BME280;4581;42.416;25.598;2023-10-09T01:44:50;98888.88;;;15.66;59.28
9091;BME280;4581;42.416;25.598;2023-10-09T01:47:17;98891.66;;;15.72;59.46
9091;BME280;4581;42.416;25.598;2023-10-09T01:49:45;98904.31;;;15.59;59.55
9091;BME280;4581;42.416;25.598;2023-10-09T01:52:15;98905.16;;;15.59;60.01
9091;BME280;4581;42.416;25.598;2023-10-09T01:54:44;98892.41;;;15.60;60.22
9091;BME280;4581;42.416;25.598;2023-10-09T01:57:18;98903.97;;;15.68;59.54
9091;BME280;4581;42.416;25.598;2023-10-09T01:59:50;98908.50;;;15.61;60.53
9091;BME280;4581;42.416;25.598;2023-10-09T02:02:21;98920.47;;;15.67;60.63
9091;BME280;4581;42.416;25.598;2023-10-09T02:05:04;98923.97;;;15.61;59.87
9091;BME280;4581;42.416;25.598;2023-10-09T02:07:34;98945.34;;;15.64;60.19
9091;BME280;4581;42.416;25.598;2023-10-09T02:10:08;98937.81;;;15.66;59.15
9091;BME280;4581;42.416;25.598;2023-10-09T02:12:59;98938.84;;;15.65;58.57
9091;BME280;4581;42.416;25.598;2023-10-09T02:15:27;98935.00;;;15.53;58.25
9091;BME280;4581;42.416;25.598;2023-10-09T02:18:17;98928.19;;;15.42;58.37
9091;BME280;4581;42.416;25.598;2023-10-09T02:23:29;98946.25;;;14.86;57.73
9091;BME280;4581;42.416;25.598;2023-10-09T02:26:08;98959.25;;;14.90;58.02
9091;BME280;4581;42.416;25.598;2023-10-09T02:28:36;98953.31;;;14.80;57.06
9091;BME280;4581;42.416;25.598;2023-10-09T02:31:12;98955.81;;;14.82;55.37
9091;BME280;4581;42.416;25.598;2023-10-09T02:33:39;98953.88;;;14.76;53.60
9091;BME280;4581;42.416;25.598;2023-10-09T02:36:07;98962.47;;;14.65;52.83
9091;BME280;4581;42.416;25.598;2023-10-09T02:38:34;98973.84;;;14.53;52.87
9091;BME280;4581;42.416;25.598;2023-10-09T02:41:04;98973.38;;;14.50;51.25
9091;BME280;4581;42.416;25.598;2023-10-09T02:43:32;98967.03;;;14.43;50.94
9091;BME280;4581;42.416;25.598;2023-10-09T02:46:15;98972.84;;;14.40;50.20
9091;BME280;4581;42.416;25.598;2023-10-09T02:48:48;98974.50;;;14.41;49.88
9091;BME280;4581;42.416;25.598;2023-10-09T02:51:23;98982.06;;;14.31;49.75
9091;BME280;4581;42.416;25.598;2023-10-09T02:53:53;98987.22;;;14.26;49.97
9091;BME280;4581;42.416;25.598;2023-10-09T02:56:22;99000.03;;;14.32;48.44
9091;BME280;4581;42.416;25.598;2023-10-09T02:59:03;99001.25;;;14.15;48.95
9091;BME280;4581;42.416;25.598;2023-10-09T03:01:38;99011.72;;;14.18;49.95
9091;BME280;4581;42.416;25.598;2023-10-09T03:04:05;99018.06;;;14.10;48.48
9091;BME280;4581;42.416;25.598;2023-10-09T03:06:33;99016.19;;;14.11;50.26
9091;BME280;4581;42.416;25.598;2023-10-09T03:09:04;99016.19;;;14.11;48.50
9091;BME280;4581;42.416;25.598;2023-10-09T03:11:47;99031.81;;;14.08;48.75
9091;BME280;4581;42.416;25.598;2023-10-09T03:14:14;99028.63;;;14.05;49.18
9091;BME280;4581;42.416;25.598;2023-10-09T03:16:43;99029.84;;;13.88;48.28
9091;BME280;4581;42.416;25.598;2023-10-09T03:19:10;99034.69;;;13.92;48.87
9091;BME280;4581;42.416;25.598;2023-10-09T03:21:37;99039.38;;;13.98;48.85
9091;BME280;4581;42.416;25.598;2023-10-09T03:24:04;99047.22;;;13.93;48.75
9091;BME280;4581;42.416;25.598;2023-10-09T03:26:32;99047.75;;;13.89;48.98
9091;BME280;4581;42.416;25.598;2023-10-09T03:28:58;99055.78;;;13.82;48.70
9091;BME280;4581;42.416;25.598;2023-10-09T03:31:28;99055.13;;;13.80;48.77
9091;BME280;4581;42.416;25.598;2023-10-09T03:33:57;99054.56;;;13.85;49.85
9091;BME280;4581;42.416;25.598;2023-10-09T03:36:24;99052.72;;;13.85;50.36
9091;BME280;4581;42.416;25.598;2023-10-09T03:38:53;99055.78;;;13.82;49.57
9091;BME280;4581;42.416;25.598;2023-10-09T03:41:25;99055.97;;;13.81;49.91
9091;BME280;4581;42.416;25.598;2023-10-09T03:43:55;99062.59;;;13.78;49.92
9091;BME280;4581;42.416;25.598;2023-10-09T03:46:22;99064.22;;;13.87;50.51
9091;BME280;4581;42.416;25.598;2023-10-09T03:48:59;99066.25;;;13.85;49.57
9091;BME280;4581;42.416;25.598;2023-10-09T03:51:37;99081.94;;;13.75;49.83
9091;BME280;4581;42.416;25.598;2023-10-09T03:54:04;99085.69;;;13.74;51.29
9091;BME280;4581;42.416;25.598;2023-10-09T03:56:34;99089.41;;;13.73;50.24
9091;BME280;4581;42.416;25.598;2023-10-09T03:59:01;99094.66;;;13.75;50.40
9091;BME280;4581;42.416;25.598;2023-10-09T04:01:31;99089.22;;;13.75;49.46
9091;BME280;4581;42.416;25.598;2023-10-09T04:04:07;99086.69;;;13.73;49.69
9091;BME280;4581;42.416;25.598;2023-10-09T04:06:37;99097.59;;;13.65;51.10
9091;BME280;4581;42.416;25.598;2023-10-09T04:09:06;99097.59;;;13.65;51.06
9091;BME280;4581;42.416;25.598;2023-10-09T04:11:46;99090.16;;;13.67;49.87
9091;BME280;4581;42.416;25.598;2023-10-09T04:14:13;99093.75;;;13.59;50.32
9091;BME280;4581;42.416;25.598;2023-10-09T04:17:06;99099.88;;;13.53;50.53
9091;BME280;4581;42.416;25.598;2023-10-09T04:19:52;99110.25;;;13.50;50.07
9091;BME280;4581;42.416;25.598;2023-10-09T04:22:39;99120.75;;;13.45;50.65
9091;BME280;4581;42.416;25.598;2023-10-09T04:25:09;99106.75;;;13.41;50.68
9091;BME280;4581;42.416;25.598;2023-10-09T04:27:41;99110.97;;;13.44;52.55
9091;BME280;4581;42.416;25.598;2023-10-09T04:30:08;99121.06;;;13.50;51.29
9091;BME280;4581;42.416;25.598;2023-10-09T04:32:42;99116.50;;;13.50;50.78
9091;BME280;4581;42.416;25.598;2023-10-09T04:35:11;99140.72;;;13.52;50.80
9091;BME280;4581;42.416;25.598;2023-10-09T04:37:51;99133.41;;;13.52;51.76
9091;BME280;4581;42.416;25.598;2023-10-09T04:40:30;99148.34;;;13.48;51.30
9091;BME280;4581;42.416;25.598;2023-10-09T04:43:18;99151.88;;;13.49;52.79
9091;BME280;4581;42.416;25.598;2023-10-09T04:45:47;99154.31;;;13.44;52.33
9091;BME280;4581;42.416;25.598;2023-10-09T04:48:34;99162.25;;;13.45;50.42
9091;BME280;4581;42.416;25.598;2023-10-09T04:51:14;99164.31;;;13.43;51.74
9091;BME280;4581;42.416;25.598;2023-10-09T04:53:48;99172.72;;;13.48;52.70
9091;BME280;4581;42.416;25.598;2023-10-09T04:56:35;99166.28;;;13.49;52.77
9091;BME280;4581;42.416;25.598;2023-10-09T04:59:18;99174.69;;;13.63;52.27
9091;BME280;4581;42.416;25.598;2023-10-09T05:01:45;99169.25;;;13.63;51.89
9091;BME280;4581;42.416;25.598;2023-10-09T05:04:25;99170.94;;;13.64;51.32
9091;BME280;4581;42.416;25.598;2023-10-09T05:07:04;99173.78;;;13.70;51.42
9091;BME280;4581;42.416;25.598;2023-10-09T05:09:49;99170.75;;;13.65;50.05
9091;BME280;4581;42.416;25.598;2023-10-09T05:12:22;99183.28;;;13.66;51.49
9091;BME280;4581;42.416;25.598;2023-10-09T05:14:55;99180.91;;;13.71;51.06
9091;BME280;4581;42.416;25.598;2023-10-09T05:17:40;99175.75;;;13.76;50.43
9091;BME280;4581;42.416;25.598;2023-10-09T05:20:12;99186.47;;;13.70;50.58
9091;BME280;4581;42.416;25.598;2023-10-09T05:22:54;99188.59;;;13.82;50.50
9091;BME280;4581;42.416;25.598;2023-10-09T05:25:25;99193.22;;;13.96;50.93
9091;BME280;4581;42.416;25.598;2023-10-09T05:28:19;99197.56;;;14.05;50.50
9091;BME280;4581;42.416;25.598;2023-10-09T05:31:02;99205.00;;;14.12;51.19
9091;BME280;4581;42.416;25.598;2023-10-09T05:33:35;99215.41;;;14.23;51.26
9091;BME280;4581;42.416;25.598;2023-10-09T05:36:05;99214.56;;;14.22;50.18
9091;BME280;4581;42.416;25.598;2023-10-09T05:38:52;99223.06;;;14.19;49.36
9091;BME280;4581;42.416;25.598;2023-10-09T05:41:26;99228.63;;;14.03;49.03
9091;BME280;4581;42.416;25.598;2023-10-09T05:44:14;99240.66;;;14.00;51.17
9091;BME280;4581;42.416;25.598;2023-10-09T05:46:59;99237.69;;;13.87;50.52
9091;BME280;4581;42.416;25.598;2023-10-09T05:49:44;99246.81;;;13.94;50.96
9091;BME280;4581;42.416;25.598;2023-10-09T05:52:22;99250.16;;;13.96;50.08
9091;BME280;4581;42.416;25.598;2023-10-09T05:55:05;99252.06;;;13.96;50.51
9091;BME280;4581;42.416;25.598;2023-10-09T05:58:07;99266.63;;;13.95;49.63
9091;BME280;4581;42.416;25.598;2023-10-09T06:00:52;99263.75;;;13.88;50.49
9091;BME280;4581;42.416;25.598;2023-10-09T06:03:38;99273.91;;;13.94;51.24
9091;BME280;4581;42.416;25.598;2023-10-09T06:06:38;99269.75;;;14.06;51.96
9091;BME280;4581;42.416;25.598;2023-10-09T06:09:13;99276.41;;;14.04;50.69
9091;BME280;4581;42.416;25.598;2023-10-09T06:11:47;99265.69;;;14.11;50.23
9091;BME280;4581;42.416;25.598;2023-10-09T06:14:37;99280.88;;;14.20;50.20
9091;BME280;4581;42.416;25.598;2023-10-09T06:17:04;99295.81;;;14.16;50.62
9091;BME280;4581;42.416;25.598;2023-10-09T06:19:39;99293.09;;;14.16;50.06
9091;BME280;4581;42.416;25.598;2023-10-09T06:22:15;99292.41;;;14.14;49.66
9091;BME280;4581;42.416;25.598;2023-10-09T06:24:51;99300.03;;;14.18;49.93
9091;BME280;4581;42.416;25.598;2023-10-09T06:27:21;99299.53;;;14.15;48.86
9091;BME280;4581;42.416;25.598;2023-10-09T06:29:58;99308.75;;;14.05;49.82
9091;BME280;4581;42.416;25.598;2023-10-09T06:32:44;99308.84;;;14.20;49.34
9091;BME280;4581;42.416;25.598;2023-10-09T06:35:29;99312.69;;;14.26;51.58
9091;BME280;4581;42.416;25.598;2023-10-09T06:38:00;99320.78;;;14.34;49.50
9091;BME280;4581;42.416;25.598;2023-10-09T06:40:39;99325.84;;;14.37;49.07
9091;BME280;4581;42.416;25.598;2023-10-09T06:43:19;99326.00;;;14.43;49.87
9091;BME280;4581;42.416;25.598;2023-10-09T06:45:49;99326.38;;;14.32;48.55
9091;BME280;4581;42.416;25.598;2023-10-09T06:48:25;99345.19;;;14.34;48.99
9091;BME280;4581;42.416;25.598;2023-10-09T06:51:06;99337.03;;;14.34;49.25
9091;BME280;4581;42.416;25.598;2023-10-09T06:53:55;99346.03;;;14.34;49.07
9091;BME280;4581;42.416;25.598;2023-10-09T06:56:23;99340.78;;;14.33;48.98
9091;BME280;4581;42.416;25.598;2023-10-09T06:59:10;99342.84;;;14.31;49.33
9091;BME280;4581;42.416;25.598;2023-10-09T07:01:48;99337.41;;;14.31;48.85
9091;BME280;4581;42.416;25.598;2023-10-09T07:04:34;99345.19;;;14.34;48.57
9091;BME280;4581;42.416;25.598;2023-10-09T07:07:01;99335.53;;;14.39;48.50
9091;BME280;4581;42.416;25.598;2023-10-09T07:09:28;99345.84;;;14.44;49.21
9091;BME280;4581;42.416;25.598;2023-10-09T07:12:33;99351.81;;;14.62;48.02
9091;BME280;4581;42.416;25.598;2023-10-09T07:15:01;99358.56;;;14.66;47.67
9091;BME280;4581;42.416;25.598;2023-10-09T07:17:28;99355.72;;;14.60;47.94
9091;BME280;4581;42.416;25.598;2023-10-09T07:20:00;99359.56;;;14.65;47.78
9091;BME280;4581;42.416;25.598;2023-10-09T07:22:36;99355.19;;;14.64;47.49
9091;BME280;4581;42.416;25.598;2023-10-09T07:25:06;99356.63;;;14.75;47.98
9091;BME280;4581;42.416;25.598;2023-10-09T07:27:54;99352.84;;;14.98;46.82
9091;BME280;4581;42.416;25.598;2023-10-09T07:30:22;99357.06;;;15.01;46.18
9091;BME280;4581;42.416;25.598;2023-10-09T07:33:00;99360.69;;;15.16;45.42
9091;BME280;4581;42.416;25.598;2023-10-09T07:35:48;99350.38;;;15.26;45.85
9091;BME280;4581;42.416;25.598;2023-10-09T07:38:25;99353.88;;;15.35;46.48
9091;BME280;4581;42.416;25.598;2023-10-09T07:40:56;99360.88;;;15.29;45.86
9091;BME280;4581;42.416;25.598;2023-10-09T07:43:36;99368.09;;;15.37;46.17
9091;BME280;4581;42.416;25.598;2023-10-09T07:46:07;99363.72;;;15.36;45.71
9091;BME280;4581;42.416;25.598;2023-10-09T07:48:53;99369.72;;;15.46;44.83
9091;BME280;4581;42.416;25.598;2023-10-09T07:51:21;99369.41;;;15.41;43.90
9091;BME280;4581;42.416;25.598;2023-10-09T07:53:52;99367.38;;;15.43;44.61
9091;BME280;4581;42.416;25.598;2023-10-09T07:56:35;99367.84;;;15.46;44.38
9091;BME280;4581;42.416;25.598;2023-10-09T07:59:08;99367.41;;;15.58;44.76
9091;BME280;4581;42.416;25.598;2023-10-09T08:01:43;99365.25;;;15.68;44.59
9091;BME280;4581;42.416;25.598;2023-10-09T08:04:23;99363.56;;;15.81;43.35
9091;BME280;4581;42.416;25.598;2023-10-09T08:07:07;99362.34;;;15.99;43.79
9091;BME280;4581;42.416;25.598;2023-10-09T08:09:55;99372.22;;;16.21;42.98
9091;BME280;4581;42.416;25.598;2023-10-09T08:12:42;99356.66;;;16.51;42.90
9091;BME280;4581;42.416;25.598;2023-10-09T08:15:25;99361.50;;;16.70;42.56
9091;BME280;4581;42.416;25.598;2023-10-09T08:18:15;99357.88;;;16.63;41.93
9091;BME280;4581;42.416;25.598;2023-10-09T08:20:54;99362.97;;;16.94;42.16
9091;BME280;4581;42.416;25.598;2023-10-09T08:23:24;99354.69;;;17.02;41.95
9091;BME280;4581;42.416;25.598;2023-10-09T08:26:03;99358.25;;;17.02;41.17
9091;BME280;4581;42.416;25.598;2023-10-09T08:28:44;99363.63;;;17.17;40.86
9091;BME280;4581;42.416;25.598;2023-10-09T08:31:16;99361.22;;;17.07;40.95
9091;BME280;4581;42.416;25.598;2023-10-09T08:34:01;99359.56;;;17.34;41.38
9091;BME280;4581;42.416;25.598;2023-10-09T08:36:31;99360.31;;;17.77;39.96
9091;BME280;4581;42.416;25.598;2023-10-09T08:39:03;99358.09;;;17.59;39.72
9091;BME280;4581;42.416;25.598;2023-10-09T08:41:52;99361.75;;;17.45;39.61
9091;BME280;4581;42.416;25.598;2023-10-09T08:44:20;99367.03;;;17.53;40.79
9091;BME280;4581;42.416;25.598;2023-10-09T08:46:53;99368.69;;;17.75;40.20
9091;BME280;4581;42.416;25.598;2023-10-09T08:49:20;99370.16;;;17.50;39.69
9091;BME280;4581;42.416;25.598;2023-10-09T08:51:48;99356.25;;;17.66;40.74
9091;BME280;4581;42.416;25.598;2023-10-09T08:54:15;99373.41;;;17.33;40.97
9091;BME280;4581;42.416;25.598;2023-10-09T08:56:42;99366.69;;;17.35;41.60
9091;BME280;4581;42.416;25.598;2023-10-09T08:59:19;99370.09;;;17.37;42.29
9091;BME280;4581;42.416;25.598;2023-10-09T09:01:47;99347.63;;;17.35;41.41
9091;BME280;4581;42.416;25.598;2023-10-09T09:07:01;99364.06;;;17.20;41.23
9091;BME280;4581;42.416;25.598;2023-10-09T09:09:28;99360.91;;;17.45;41.24
9091;BME280;4581;42.416;25.598;2023-10-09T09:11:58;99356.69;;;17.70;41.81
9091;BME280;4581;42.416;25.598;2023-10-09T09:14:38;99346.16;;;18.01;42.40
9091;BME280;4581;42.416;25.598;2023-10-09T09:17:08;99348.66;;;18.03;41.86
9091;BME280;4581;42.416;25.598;2023-10-09T09:19:38;99351.97;;;17.92;40.74
9091;BME280;4581;42.416;25.598;2023-10-09T09:22:05;99348.25;;;17.99;41.18
9091;BME280;4581;42.416;25.598;2023-10-09T09:24:40;99351.28;;;18.24;41.68
9091;BME280;4581;42.416;25.598;2023-10-09T09:27:14;99355.25;;;18.21;40.50
9091;BME280;4581;42.416;25.598;2023-10-09T09:29:46;99351.72;;;18.28;39.69
9091;BME280;4581;42.416;25.598;2023-10-09T09:32:30;99352.56;;;18.28;39.26
9091;BME280;4581;42.416;25.598;2023-10-09T09:35:03;99345.97;;;18.70;39.72
9091;BME280;4581;42.416;25.598;2023-10-09T09:37:34;99347.25;;;18.94;38.57
9091;BME280;4581;42.416;25.598;2023-10-09T09:40:10;99346.44;;;19.00;39.89
9091;BME280;4581;42.416;25.598;2023-10-09T09:43:02;99342.66;;;19.01;37.92
9091;BME280;4581;42.416;25.598;2023-10-09T09:45:34;99320.78;;;19.07;37.34
9091;BME280;4581;42.416;25.598;2023-10-09T09:48:05;99325.19;;;19.28;37.47
9091;BME280;4581;42.416;25.598;2023-10-09T09:50:33;99330.44;;;19.36;37.68
9091;BME280;4581;42.416;25.598;2023-10-09T09:53:03;99323.91;;;19.50;37.11
9091;BME280;4581;42.416;25.598;2023-10-09T09:55:33;99313.34;;;19.74;36.68
9091;BME280;4581;42.416;25.598;2023-10-09T09:58:02;99319.44;;;19.76;35.76
9091;BME280;4581;42.416;25.598;2023-10-09T10:00:33;99297.19;;;19.46;36.11
9091;BME280;4581;42.416;25.598;2023-10-09T10:03:20;99291.66;;;19.72;36.82
9091;BME280;4581;42.416;25.598;2023-10-09T10:05:50;99289.06;;;19.90;35.80
9091;BME280;4581;42.416;25.598;2023-10-09T10:08:19;99283.81;;;19.89;36.35
9091;BME280;4581;42.416;25.598;2023-10-09T10:10:47;99277.72;;;19.87;36.04
9091;BME280;4581;42.416;25.598;2023-10-09T10:13:16;99272.63;;;19.97;36.15
9091;BME280;4581;42.416;25.598;2023-10-09T10:15:58;99265.97;;;20.24;35.83
9091;BME280;4581;42.416;25.598;2023-10-09T10:18:33;99258.97;;;20.35;36.33
9091;BME280;4581;42.416;25.598;2023-10-09T10:23:44;99248.19;;;19.95;35.87
9091;BME280;4581;42.416;25.598;2023-10-09T10:26:21;99250.56;;;20.23;34.99
9091;BME280;4581;42.416;25.598;2023-10-09T10:29:16;99244.16;;;20.42;35.82
9091;BME280;4581;42.416;25.598;2023-10-09T10:32:00;99231.81;;;20.33;34.79
9091;BME280;4581;42.416;25.598;2023-10-09T10:34:53;99221.00;;;20.38;34.88
9091;BME280;4581;42.416;25.598;2023-10-09T10:37:53;99220.91;;;20.51;34.95
9091;BME280;4581;42.416;25.598;2023-10-09T10:40:34;99205.50;;;20.82;34.91
9091;BME280;4581;42.416;25.598;2023-10-09T10:43:14;99202.72;;;21.07;35.68
9091;BME280;4581;42.416;25.598;2023-10-09T10:46:03;99206.34;;;21.43;34.11
9091;BME280;4581;42.416;25.598;2023-10-09T10:48:51;99198.97;;;21.44;33.95
9091;BME280;4581;42.416;25.598;2023-10-09T10:51:26;99191.88;;;21.36;34.50
9091;BME280;4581;42.416;25.598;2023-10-09T10:54:08;99184.59;;;21.06;35.10
9091;BME280;4581;42.416;25.598;2023-10-09T10:57:16;99190.19;;;21.17;34.85
9091;BME280;4581;42.416;25.598;2023-10-09T11:00:17;99181.06;;;21.41;33.45
9091;BME280;4581;42.416;25.598;2023-10-09T11:03:02;99190.78;;;21.74;33.87
9091;BME280;4581;42.416;25.598;2023-10-09T11:05:45;99186.16;;;21.56;33.41
9091;BME280;4581;42.416;25.598;2023-10-09T11:08:23;99177.97;;;21.86;33.36
9091;BME280;4581;42.416;25.598;2023-10-09T11:10:50;99168.47;;;21.70;33.07
9091;BME280;4581;42.416;25.598;2023-10-09T11:13:24;99168.13;;;21.78;34.22
9091;BME280;4581;42.416;25.598;2023-10-09T11:15:59;99162.31;;;22.16;34.01
9091;BME280;4581;42.416;25.598;2023-10-09T11:18:46;99161.31;;;22.40;32.90
9091;BME280;4581;42.416;25.598;2023-10-09T11:21:14;99148.19;;;21.53;35.07
9091;BME280;4581;42.416;25.598;2023-10-09T11:23:41;99130.09;;;21.34;34.26
9091;BME280;4581;42.416;25.598;2023-10-09T11:26:25;99136.84;;;22.62;31.75
9091;BME280;4581;42.416;25.598;2023-10-09T11:32:05;99145.81;;;27.12;26.43
9091;BME280;4581;42.416;25.598;2023-10-09T11:34:33;99143.81;;;28.97;24.52
9091;BME280;4581;42.416;25.598;2023-10-09T11:39:35;99142.00;;;31.46;21.10
9091;BME280;4581;42.416;25.598;2023-10-09T11:42:09;99138.03;;;31.05;22.40
9091;BME280;4581;42.416;25.598;2023-10-09T11:44:42;99137.59;;;31.88;22.38
9091;BME280;4581;42.416;25.598;2023-10-09T11:47:12;99136.91;;;33.22;20.72
9091;BME280;4581;42.416;25.598;2023-10-09T11:52:23;99123.69;;;32.25;20.96
9091;BME280;4581;42.416;25.598;2023-10-09T11:55:03;99129.22;;;33.14;20.38
9091;BME280;4581;42.416;25.598;2023-10-09T11:57:31;99122.13;;;34.25;19.05
9091;BME280;4581;42.416;25.598;2023-10-09T11:59:59;99117.78;;;35.87;17.78
9091;BME280;4581;42.416;25.598;2023-10-09T12:02:27;99116.84;;;36.52;17.22
9091;BME280;4581;42.416;25.598;2023-10-09T12:04:54;99118.69;;;36.22;17.01
9091;BME280;4581;42.416;25.598;2023-10-09T12:07:24;99120.19;;;36.37;17.23
9091;BME280;4581;42.416;25.598;2023-10-09T12:09:51;99110.47;;;37.24;16.38
9091;BME280;4581;42.416;25.598;2023-10-09T12:12:23;99101.00;;;37.75;16.06
9091;BME280;4581;42.416;25.598;2023-10-09T12:14:53;99110.22;;;37.55;15.92
9091;BME280;4581;42.416;25.598;2023-10-09T12:17:20;99105.88;;;37.86;15.77
9091;BME280;4581;42.416;25.598;2023-10-09T12:19:51;99101.03;;;37.66;16.37
9091;BME280;4581;42.416;25.598;2023-10-09T12:22:18;99107.72;;;37.15;15.98
9091;BME280;4581;42.416;25.598;2023-10-09T12:24:48;99096.50;;;35.95;17.00
9091;BME280;4581;42.416;25.598;2023-10-09T12:27:14;99094.56;;;36.64;17.22
9091;BME280;4581;42.416;25.598;2023-10-09T12:29:46;99094.63;;;37.48;15.98
9091;BME280;4581;42.416;25.598;2023-10-09T12:32:16;99085.88;;;38.50;16.12
9091;BME280;4581;42.416;25.598;2023-10-09T12:34:46;99090.75;;;38.41;16.14
9091;BME280;4581;42.416;25.598;2023-10-09T12:37:17;99086.09;;;36.90;16.72
9091;BME280;4581;42.416;25.598;2023-10-09T12:39:47;99086.94;;;36.73;17.24
9091;BME280;4581;42.416;25.598;2023-10-09T12:42:14;99072.16;;;36.93;17.17
9091;BME280;4581;42.416;25.598;2023-10-09T12:44:43;99073.09;;;36.17;17.57
9091;BME280;4581;42.416;25.598;2023-10-09T12:47:10;99065.97;;;36.36;17.14
9091;BME280;4581;42.416;25.598;2023-10-09T12:49:43;99056.25;;;35.12;17.10
9091;BME280;4581;42.416;25.598;2023-10-09T12:52:10;99052.53;;;34.19;18.90
9091;BME280;4581;42.416;25.598;2023-10-09T12:54:43;99041.16;;;34.82;18.45
9091;BME280;4581;42.416;25.598;2023-10-09T12:57:13;99034.97;;;34.49;18.46
9091;BME280;4581;42.416;25.598;2023-10-09T12:59:40;99029.59;;;31.51;20.13
9091;BME280;4581;42.416;25.598;2023-10-09T13:02:15;99016.22;;;28.26;23.40
9091;BME280;4581;42.416;25.598;2023-10-09T13:04:58;99004.25;;;26.46;25.88
9091;BME280;4581;42.416;25.598;2023-10-09T13:07:26;98991.31;;;25.07;27.72
9091;BME280;4581;42.416;25.598;2023-10-09T13:09:53;98987.28;;;23.71;29.47
9091;BME280;4581;42.416;25.598;2023-10-09T13:12:35;98976.88;;;22.89;30.90
9091;BME280;4581;42.416;25.598;2023-10-09T13:15:09;98966.59;;;22.09;31.89
9091;BME280;4581;42.416;25.598;2023-10-09T13:17:39;98967.00;;;21.83;32.66
9091;BME280;4581;42.416;25.598;2023-10-09T13:20:06;98958.16;;;21.58;33.26
9091;BME280;4581;42.416;25.598;2023-10-09T13:22:40;98945.16;;;21.23;33.33
9091;BME280;4581;42.416;25.598;2023-10-09T13:25:10;98949.91;;;21.16;33.61
9091;BME280;4581;42.416;25.598;2023-10-09T13:28:00;98947.53;;;20.72;36.23
9091;BME280;4581;42.416;25.598;2023-10-09T13:30:31;98944.81;;;20.35;35.21
9091;BME280;4581;42.416;25.598;2023-10-09T13:33:06;98943.19;;;20.28;36.25
9091;BME280;4581;42.416;25.598;2023-10-09T13:35:35;98940.59;;;20.15;35.58
9091;BME280;4581;42.416;25.598;2023-10-09T13:38:13;98936.50;;;20.05;36.85
9091;BME280;4581;42.416;25.598;2023-10-09T13:40:42;98947.63;;;19.86;36.44
9091;BME280;4581;42.416;25.598;2023-10-09T13:43:08;98942.38;;;19.84;37.91
9091;BME280;4581;42.416;25.598;2023-10-09T13:45:43;98937.50;;;19.86;37.29
9091;BME280;4581;42.416;25.598;2023-10-09T13:48:16;98926.75;;;19.67;37.83
9091;BME280;4581;42.416;25.598;2023-10-09T13:50:44;98913.97;;;19.60;37.37
9091;BME280;4581;42.416;25.598;2023-10-09T13:53:11;98912.13;;;19.54;38.42
9091;BME280;4581;42.416;25.598;2023-10-09T13:55:39;98901.94;;;19.37;37.00
9091;BME280;4581;42.416;25.598;2023-10-09T13:58:10;98897.22;;;19.19;37.41
9091;BME280;4581;42.416;25.598;2023-10-09T14:00:40;98906.53;;;19.11;38.01
9091;BME280;4581;42.416;25.598;2023-10-09T14:03:12;98896.09;;;19.02;38.42
9091;BME280;4581;42.416;25.598;2023-10-09T14:05:40;98903.53;;;18.88;37.70
9091;BME280;4581;42.416;25.598;2023-10-09T14:08:23;98896.72;;;18.73;40.68